createdAt,value
2018-11-07T00:00:22.010Z,4.40
2018-11-07T00:02:50.238Z,4.00
2018-11-07T00:05:19.160Z,3.97
2018-11-07T00:07:47.316Z,3.97
2018-11-07T00:10:15.330Z,3.97
2018-11-07T00:12:43.612Z,4.13
2018-11-07T00:15:13.994Z,3.67
2018-11-07T00:17:42.118Z,3.63
2018-11-07T00:20:11.326Z,3.97
2018-11-07T00:22:39.499Z,3.50
2018-11-07T00:25:08.607Z,3.67
2018-11-07T00:27:36.734Z,3.40
2018-11-07T00:30:05.856Z,3.13
2018-11-07T00:32:33.868Z,3.83
2018-11-07T00:35:01.936Z,3.17
2018-11-07T00:37:29.966Z,3.47
2018-11-07T00:39:58.058Z,3.43
2018-11-07T00:42:26.166Z,3.20
2018-11-07T00:44:54.174Z,3.93
2018-11-07T00:47:22.310Z,3.00
2018-11-07T00:49:50.370Z,3.93
2018-11-07T00:52:18.467Z,3.50
2018-11-07T00:54:46.576Z,2.73
2018-11-07T00:57:14.632Z,3.97
2018-11-07T00:59:42.703Z,3.10
2018-11-07T01:02:10.805Z,3.10
2018-11-07T01:04:39.659Z,3.80
2018-11-07T01:07:07.790Z,3.23
2018-11-07T01:09:35.973Z,3.60
2018-11-07T01:12:05.294Z,3.37
2018-11-07T01:14:33.334Z,3.17
2018-11-07T01:17:01.483Z,3.37
2018-11-07T01:19:29.566Z,3.13
2018-11-07T01:21:57.626Z,3.70
2018-11-07T01:24:25.691Z,3.03
2018-11-07T01:26:53.743Z,3.17
2018-11-07T01:29:21.790Z,3.10
2018-11-07T01:31:49.854Z,3.60
2018-11-07T01:34:17.972Z,3.43
2018-11-07T01:36:46.078Z,2.77
2018-11-07T01:39:14.532Z,3.20
2018-11-07T01:41:42.578Z,3.03
2018-11-07T01:44:10.630Z,3.30
2018-11-07T01:46:38.703Z,2.87
2018-11-07T01:49:06.914Z,3.07
2018-11-07T01:51:34.982Z,2.70
2018-11-07T01:54:03.058Z,3.30
2018-11-07T01:56:31.126Z,3.00
2018-11-07T01:58:59.187Z,2.80
2018-11-07T02:01:27.264Z,2.87
2018-11-07T02:03:55.414Z,3.10
2018-11-07T02:06:23.460Z,2.50
2018-11-07T02:08:51.516Z,2.23
2018-11-07T02:11:19.583Z,2.80
2018-11-07T02:13:47.646Z,3.23
2018-11-07T02:16:15.715Z,2.60
2018-11-07T02:18:43.803Z,2.67
2018-11-07T02:21:11.880Z,2.77
2018-11-07T02:23:39.922Z,2.87
2018-11-07T02:26:08.100Z,3.23
2018-11-07T02:28:36.092Z,2.90
2018-11-07T02:31:04.687Z,3.00
2018-11-07T02:33:32.794Z,2.80
2018-11-07T02:36:00.970Z,3.23
2018-11-07T02:38:29.034Z,2.30
2018-11-07T02:40:57.114Z,2.93
2018-11-07T02:43:25.178Z,2.93
2018-11-07T02:45:53.317Z,2.10
2018-11-07T02:48:21.378Z,2.70
2018-11-07T02:50:49.490Z,2.50
2018-11-07T02:53:17.652Z,2.30
2018-11-07T02:55:45.715Z,2.90
2018-11-07T02:58:13.818Z,2.67
2018-11-07T03:00:41.878Z,2.27
2018-11-07T03:03:09.946Z,2.17
2018-11-07T03:05:38.094Z,2.53
2018-11-07T03:08:06.167Z,2.30
2018-11-07T03:10:34.288Z,2.30
2018-11-07T03:13:02.367Z,2.53
2018-11-07T03:15:30.540Z,2.93
2018-11-07T03:20:33.971Z,2.53
2018-11-07T03:23:02.098Z,2.40
2018-11-07T03:25:30.263Z,2.17
2018-11-07T03:27:58.330Z,2.20
2018-11-07T03:30:26.386Z,2.30
2018-11-07T03:32:54.472Z,2.33
2018-11-07T03:35:26.959Z,2.13
2018-11-07T03:37:56.268Z,1.93
2018-11-07T03:40:24.841Z,2.03
2018-11-07T03:42:53.044Z,2.10
2018-11-07T03:45:26.662Z,2.00
2018-11-07T03:47:54.733Z,1.80
2018-11-07T03:50:23.128Z,2.00
2018-11-07T03:52:51.199Z,1.90
2018-11-07T03:55:19.334Z,1.97
2018-11-07T03:57:47.416Z,2.27
2018-11-07T04:00:15.527Z,1.73
2018-11-07T04:02:44.094Z,2.05
2018-11-07T04:05:12.347Z,1.83
2018-11-07T04:07:41.437Z,1.93
2018-11-07T04:10:09.642Z,2.13
2018-11-07T04:12:37.770Z,2.10
2018-11-07T04:15:06.919Z,1.70
2018-11-07T04:17:35.003Z,1.87
2018-11-07T04:20:03.211Z,1.93
2018-11-07T04:22:31.263Z,1.40
2018-11-07T04:24:59.374Z,2.00
2018-11-07T04:27:27.696Z,1.70
2018-11-07T04:29:55.754Z,1.73
2018-11-07T04:32:23.823Z,1.93
2018-11-07T04:34:51.903Z,1.80
2018-11-07T04:37:19.994Z,1.73
2018-11-07T04:39:48.111Z,1.43
2018-11-07T04:42:16.281Z,1.60
2018-11-07T04:44:44.406Z,1.90
2018-11-07T04:47:12.474Z,1.80
2018-11-07T04:49:40.562Z,1.50
2018-11-07T04:52:08.690Z,1.60
2018-11-07T04:54:36.788Z,1.50
2018-11-07T04:57:05.536Z,1.80
2018-11-07T04:59:33.597Z,1.60
2018-11-07T05:02:01.688Z,1.67
2018-11-07T05:04:29.830Z,1.70
2018-11-07T05:06:57.907Z,1.70
2018-11-07T05:09:25.990Z,1.57
2018-11-07T05:11:54.136Z,1.73
2018-11-07T05:14:22.364Z,1.77
2018-11-07T05:16:50.722Z,1.50
2018-11-07T05:19:18.798Z,1.47
2018-11-07T05:21:46.895Z,1.90
2018-11-07T05:24:15.006Z,1.23
2018-11-07T05:26:43.138Z,1.60
2018-11-07T05:29:11.483Z,2.00
2018-11-07T05:31:39.579Z,1.67
2018-11-07T05:34:07.748Z,1.80
2018-11-07T05:36:35.910Z,1.50
2018-11-07T05:39:05.441Z,1.63
2018-11-07T05:41:33.894Z,1.47
2018-11-07T05:44:02.066Z,1.70
2018-11-07T05:46:30.538Z,1.73
2018-11-07T05:48:58.713Z,1.70
2018-11-07T05:51:26.830Z,1.80
2018-11-07T05:53:55.270Z,1.60
2018-11-07T05:56:23.708Z,1.70
2018-11-07T05:58:51.858Z,1.77
2018-11-07T06:01:20.007Z,1.80
2018-11-07T06:03:48.299Z,1.47
2018-11-07T06:06:16.402Z,1.80
2018-11-07T06:08:44.551Z,2.00
2018-11-07T06:11:12.700Z,1.53
2018-11-07T06:13:40.807Z,1.83
2018-11-07T06:16:09.007Z,1.80
2018-11-07T06:18:37.120Z,2.20
2018-11-07T06:21:05.202Z,1.77
2018-11-07T06:23:33.266Z,2.03
2018-11-07T06:26:01.337Z,1.40
2018-11-07T06:28:29.622Z,1.97
2018-11-07T06:30:57.806Z,1.73
2018-11-07T06:33:25.865Z,1.47
2018-11-07T06:35:54.144Z,1.70
2018-11-07T06:38:22.574Z,1.73
2018-11-07T06:40:50.642Z,1.60
2018-11-07T06:43:18.981Z,1.67
2018-11-07T06:45:47.030Z,1.80
2018-11-07T06:48:15.109Z,1.33
2018-11-07T06:50:43.219Z,1.70
2018-11-07T06:53:11.303Z,1.77
2018-11-07T06:55:39.442Z,2.00
2018-11-07T06:58:07.430Z,2.00
2018-11-07T07:00:36.032Z,1.50
2018-11-07T07:03:04.896Z,2.00
2018-11-07T07:05:32.971Z,1.90
2018-11-07T07:08:01.079Z,1.97
2018-11-07T07:10:29.142Z,1.77
2018-11-07T07:12:57.226Z,1.63
2018-11-07T07:15:25.266Z,1.80
2018-11-07T07:17:53.377Z,2.00
2018-11-07T07:20:21.576Z,1.70
2018-11-07T07:22:50.242Z,1.60
2018-11-07T07:25:18.451Z,1.77
2018-11-07T07:27:47.123Z,1.50
2018-11-07T07:30:16.481Z,1.47
2018-11-07T07:32:45.182Z,1.70
2018-11-07T07:35:13.850Z,1.57
2018-11-07T07:37:41.918Z,1.53
2018-11-07T07:40:12.277Z,1.53
2018-11-07T07:42:41.318Z,1.63
2018-11-07T07:45:11.757Z,1.40
2018-11-07T07:47:40.360Z,1.70
2018-11-07T07:50:10.034Z,1.77
2018-11-07T07:52:38.206Z,1.60
2018-11-07T07:55:06.470Z,2.03
2018-11-07T07:57:34.552Z,2.20
2018-11-07T08:00:02.642Z,2.03
2018-11-07T08:02:30.927Z,1.60
2018-11-07T08:04:58.978Z,1.20
2018-11-07T08:07:27.352Z,1.97
2018-11-07T08:09:55.438Z,1.67
2018-11-07T08:12:23.490Z,2.17
2018-11-07T08:14:51.561Z,1.60
2018-11-07T08:17:19.622Z,2.00
2018-11-07T08:19:48.229Z,1.70
2018-11-07T08:22:16.274Z,1.60
2018-11-07T08:24:44.351Z,1.80
2018-11-07T08:27:12.394Z,1.90
2018-11-07T08:29:40.454Z,1.77
2018-11-07T08:32:08.961Z,1.33
2018-11-07T08:34:37.474Z,1.50
2018-11-07T08:37:05.526Z,1.53
2018-11-07T08:39:33.699Z,1.67
2018-11-07T08:42:01.786Z,1.30
2018-11-07T08:44:29.835Z,1.27
2018-11-07T08:46:57.890Z,1.17
2018-11-07T08:49:25.958Z,1.60
2018-11-07T08:51:54.038Z,1.30
2018-11-07T08:54:22.103Z,1.23
2018-11-07T08:56:50.181Z,1.33
2018-11-07T08:59:18.290Z,1.20
2018-11-07T09:01:46.379Z,1.40
2018-11-07T09:04:14.453Z,1.70
2018-11-07T09:06:42.506Z,1.60
2018-11-07T09:09:11.474Z,1.50
2018-11-07T09:11:39.654Z,1.17
2018-11-07T09:14:07.995Z,1.30
2018-11-07T09:16:36.060Z,1.30
2018-11-07T09:19:04.102Z,1.10
2018-11-07T09:21:32.758Z,1.20
2018-11-07T09:24:00.858Z,1.23
2018-11-07T09:26:28.923Z,1.50
2018-11-07T09:28:57.208Z,1.13
2018-11-07T09:31:25.294Z,1.77
2018-11-07T09:33:53.393Z,1.70
2018-11-07T09:36:21.463Z,1.33
2018-11-07T09:38:49.521Z,1.10
2018-11-07T09:41:17.694Z,1.70
2018-11-07T09:43:45.830Z,1.20
2018-11-07T09:46:14.352Z,1.10
2018-11-07T09:48:42.572Z,1.17
2018-11-07T09:51:10.622Z,1.53
2018-11-07T09:53:38.712Z,1.67
2018-11-07T09:56:06.717Z,1.20
2018-11-07T09:58:34.887Z,1.57
2018-11-07T10:01:02.958Z,1.37
2018-11-07T10:03:31.088Z,1.20
2018-11-07T10:05:59.123Z,0.90
2018-11-07T10:08:27.200Z,0.90
2018-11-07T10:10:55.534Z,1.00
2018-11-07T10:13:23.612Z,1.03
2018-11-07T10:15:51.697Z,1.23
2018-11-07T10:18:19.790Z,0.90
2018-11-07T10:20:47.882Z,0.90
2018-11-07T10:23:16.252Z,1.00
2018-11-07T10:25:44.330Z,0.83
2018-11-07T10:28:12.616Z,1.07
2018-11-07T10:30:40.518Z,0.77
2018-11-07T10:33:08.702Z,0.90
2018-11-07T10:35:36.798Z,1.00
2018-11-07T10:38:05.231Z,0.80
2018-11-07T10:40:34.355Z,0.80
2018-11-07T10:43:02.437Z,0.80
2018-11-07T10:45:30.513Z,0.97
2018-11-07T10:47:58.583Z,0.90
2018-11-07T10:50:26.732Z,0.97
2018-11-07T10:52:54.840Z,1.00
2018-11-07T10:55:22.937Z,1.00
2018-11-07T10:57:50.982Z,0.97
2018-11-07T11:00:24.433Z,0.87
2018-11-07T11:02:56.904Z,1.13
2018-11-07T11:05:25.063Z,0.63
2018-11-07T11:07:53.129Z,0.70
2018-11-07T11:10:21.486Z,0.73
2018-11-07T11:12:49.789Z,0.77
2018-11-07T11:15:17.849Z,1.00
2018-11-07T11:17:46.000Z,1.10
2018-11-07T11:20:14.543Z,1.03
2018-11-07T11:22:42.634Z,0.80
2018-11-07T11:25:11.106Z,1.00
2018-11-07T11:27:39.227Z,0.67
2018-11-07T11:30:07.939Z,0.87
2018-11-07T11:32:36.067Z,0.70
2018-11-07T11:35:04.429Z,0.90
2018-11-07T11:37:32.458Z,0.60
2018-11-07T11:40:00.898Z,0.60
2018-11-07T11:42:29.170Z,0.70
2018-11-07T11:44:57.306Z,0.90
2018-11-07T11:47:25.351Z,0.70
2018-11-07T11:49:53.517Z,0.80
2018-11-07T11:52:21.586Z,0.60
2018-11-07T11:54:49.656Z,0.70
2018-11-07T11:57:17.735Z,0.87
2018-11-07T11:59:46.059Z,0.70
2018-11-07T12:02:13.907Z,0.80
2018-11-07T12:04:41.919Z,0.70
2018-11-07T12:07:10.004Z,0.80
2018-11-07T12:09:38.076Z,0.50
2018-11-07T12:12:06.297Z,0.70
2018-11-07T12:14:34.358Z,0.80
2018-11-07T12:17:02.464Z,0.73
2018-11-07T12:19:30.531Z,0.70
2018-11-07T12:21:58.599Z,0.87
2018-11-07T12:24:26.695Z,0.73
2018-11-07T12:26:54.835Z,0.90
2018-11-07T12:29:22.822Z,0.90
2018-11-07T12:31:50.918Z,0.67
2018-11-07T12:34:19.066Z,0.50
2018-11-07T12:36:47.129Z,0.80
2018-11-07T12:39:15.182Z,0.57
2018-11-07T12:41:43.226Z,0.73
2018-11-07T12:44:11.357Z,0.90
2018-11-07T12:46:39.398Z,1.00
2018-11-07T12:49:07.471Z,0.73
2018-11-07T12:51:35.598Z,1.10
2018-11-07T12:54:03.658Z,0.63
2018-11-07T12:56:31.710Z,0.77
2018-11-07T12:59:00.004Z,0.90
2018-11-07T13:01:28.122Z,0.83
2018-11-07T13:03:56.174Z,0.70
2018-11-07T13:06:24.265Z,0.87
2018-11-07T13:08:52.621Z,0.70
2018-11-07T13:11:20.745Z,0.83
2018-11-07T13:13:48.742Z,0.63
2018-11-07T13:16:16.807Z,0.80
2018-11-07T13:18:44.914Z,0.83
2018-11-07T13:21:13.010Z,0.77
2018-11-07T13:23:41.202Z,0.83
2018-11-07T13:26:09.281Z,0.90
2018-11-07T13:28:37.449Z,0.80
2018-11-07T13:31:05.782Z,1.00
2018-11-07T13:33:34.452Z,1.00
2018-11-07T13:36:02.499Z,0.90
2018-11-07T13:38:30.940Z,0.90
2018-11-07T13:40:58.643Z,0.77
2018-11-07T13:43:26.703Z,0.87
2018-11-07T13:45:54.868Z,0.97
2018-11-07T13:48:22.879Z,0.80
2018-11-07T13:50:50.922Z,0.97
2018-11-07T13:53:19.047Z,0.80
2018-11-07T13:55:47.080Z,0.80
2018-11-07T13:58:15.221Z,1.00
2018-11-07T14:00:43.278Z,1.00
2018-11-07T14:03:11.336Z,0.73
2018-11-07T14:05:39.627Z,0.60
2018-11-07T14:08:07.481Z,0.50
2018-11-07T14:10:35.574Z,0.80
2018-11-07T14:13:03.662Z,0.83
2018-11-07T14:15:31.731Z,0.90
2018-11-07T14:17:59.783Z,0.70
2018-11-07T14:20:27.839Z,0.90
2018-11-07T14:22:55.932Z,0.40
2018-11-07T14:25:24.006Z,0.97
2018-11-07T14:27:52.221Z,0.60
2018-11-07T14:30:20.674Z,0.90
2018-11-07T14:32:50.763Z,0.67
2018-11-07T14:35:18.878Z,0.70
2018-11-07T14:37:46.951Z,0.67
2018-11-07T14:40:15.008Z,0.80
2018-11-07T14:42:43.150Z,0.80
2018-11-07T14:45:11.882Z,0.90
2018-11-07T14:47:40.572Z,0.80
2018-11-07T14:50:09.551Z,0.60
2018-11-07T14:52:37.810Z,0.50
2018-11-07T14:55:06.299Z,0.63
2018-11-07T14:57:35.013Z,1.00
2018-11-07T15:00:03.408Z,0.60
2018-11-07T15:02:31.853Z,0.50
2018-11-07T15:04:59.870Z,0.47
2018-11-07T15:07:27.911Z,0.93
2018-11-07T15:09:56.037Z,0.60
2018-11-07T15:12:24.265Z,0.70
2018-11-07T15:14:52.338Z,0.83
2018-11-07T15:17:20.501Z,1.37
2018-11-07T15:19:48.466Z,1.90
2018-11-07T15:22:16.518Z,1.30
2018-11-07T15:24:44.819Z,1.70
2018-11-07T15:27:12.850Z,1.53
2018-11-07T15:29:40.950Z,2.00
2018-11-07T15:32:08.993Z,2.53
2018-11-07T15:34:37.051Z,2.60
2018-11-07T15:37:05.624Z,2.10
2018-11-07T15:39:33.682Z,2.20
2018-11-07T15:42:01.754Z,2.30
2018-11-07T15:44:29.809Z,2.20
2018-11-07T15:46:57.882Z,2.17
2018-11-07T15:49:25.946Z,2.70
2018-11-07T15:51:54.444Z,2.33
2018-11-07T15:54:22.514Z,2.70
2018-11-07T15:56:50.813Z,2.73
2018-11-07T15:59:18.928Z,2.80
2018-11-07T16:01:46.982Z,2.20
2018-11-07T16:04:15.114Z,2.20
2018-11-07T16:06:43.219Z,1.87
2018-11-07T16:09:11.279Z,2.10
2018-11-07T16:11:39.326Z,2.40
2018-11-07T16:14:07.713Z,2.00
2018-11-07T16:16:35.865Z,2.30
2018-11-07T16:19:03.922Z,1.97
2018-11-07T16:21:32.199Z,1.90
2018-11-07T16:24:00.256Z,2.30
2018-11-07T16:26:28.358Z,2.20
2018-11-07T16:28:56.434Z,1.80
2018-11-07T16:31:24.576Z,2.00
2018-11-07T16:33:52.626Z,1.67
2018-11-07T16:36:20.798Z,1.80
2018-11-07T16:38:49.056Z,1.60
2018-11-07T16:41:17.252Z,2.10
2018-11-07T16:43:45.159Z,1.83
2018-11-07T16:46:13.227Z,1.60
2018-11-07T16:48:41.297Z,1.80
2018-11-07T16:51:09.314Z,1.63
2018-11-07T16:53:37.357Z,1.67
2018-11-07T16:56:06.326Z,1.70
2018-11-07T16:58:34.496Z,1.83
2018-11-07T17:01:02.636Z,1.67
2018-11-07T17:03:30.727Z,1.70
2018-11-07T17:05:58.788Z,1.37
2018-11-07T17:08:26.840Z,1.50
2018-11-07T17:10:54.990Z,1.67
2018-11-07T17:13:23.187Z,1.80
2018-11-07T17:15:51.311Z,2.00
2018-11-07T17:18:19.310Z,2.67
2018-11-07T17:20:47.375Z,2.00
2018-11-07T17:23:18.532Z,1.20
2018-11-07T17:25:43.510Z,1.70
2018-11-07T17:28:11.571Z,1.73
2018-11-07T17:30:39.674Z,1.50
2018-11-07T17:33:07.724Z,1.60
2018-11-07T17:35:35.888Z,1.70
2018-11-07T17:38:03.962Z,1.70
2018-11-07T17:40:32.009Z,1.53
2018-11-07T17:43:00.083Z,2.13
2018-11-07T17:45:28.130Z,1.23
2018-11-07T17:47:56.255Z,1.30
2018-11-07T17:50:24.301Z,1.93
2018-11-07T17:52:52.780Z,1.40
2018-11-07T17:55:21.558Z,1.30
2018-11-07T17:57:49.627Z,1.57
2018-11-07T18:00:19.107Z,1.50
2018-11-07T18:02:47.194Z,1.43
2018-11-07T18:05:15.246Z,1.40
2018-11-07T18:07:43.369Z,1.37
2018-11-07T18:10:14.906Z,1.50
2018-11-07T18:12:43.398Z,1.10
2018-11-07T18:15:11.750Z,1.33
2018-11-07T18:17:39.839Z,1.10
2018-11-07T18:20:09.334Z,1.20
2018-11-07T18:22:37.394Z,1.33
2018-11-07T18:25:06.743Z,1.10
2018-11-07T18:27:34.798Z,1.33
2018-11-07T18:30:02.867Z,1.27
2018-11-07T18:32:30.964Z,0.90
2018-11-07T18:34:59.274Z,1.30
2018-11-07T18:37:27.305Z,1.10
2018-11-07T18:39:56.938Z,1.27
2018-11-07T18:42:25.063Z,1.30
2018-11-07T18:44:53.116Z,1.10
2018-11-07T18:47:21.162Z,1.30
2018-11-07T18:49:49.225Z,1.40
2018-11-07T18:52:17.301Z,1.10
2018-11-07T18:54:45.362Z,1.13
2018-11-07T18:57:13.439Z,1.20
2018-11-07T18:59:41.489Z,1.07
2018-11-07T19:02:09.583Z,1.00
2018-11-07T19:04:38.069Z,1.00
2018-11-07T19:07:06.174Z,1.33
2018-11-07T19:09:34.234Z,1.00
2018-11-07T19:12:02.544Z,1.60
2018-11-07T19:14:30.618Z,1.30
2018-11-07T19:16:58.646Z,1.00
2018-11-07T19:19:27.135Z,1.30
2018-11-07T19:21:55.243Z,1.20
2018-11-07T19:24:23.295Z,1.30
2018-11-07T19:26:51.697Z,1.43
2018-11-07T19:29:19.643Z,1.50
2018-11-07T19:31:47.694Z,1.30
2018-11-07T19:34:15.786Z,1.33
2018-11-07T19:36:43.894Z,1.60
2018-11-07T19:39:11.974Z,1.30
2018-11-07T19:41:40.046Z,1.13
2018-11-07T19:44:08.586Z,1.20
2018-11-07T19:46:36.941Z,1.43
2018-11-07T19:49:05.614Z,1.30
2018-11-07T19:51:33.809Z,1.20
2018-11-07T19:54:02.032Z,1.30
2018-11-07T19:56:29.990Z,1.10
2018-11-07T19:58:58.075Z,1.10
2018-11-07T20:01:26.658Z,1.10
2018-11-07T20:03:55.466Z,1.33
2018-11-07T20:06:24.306Z,1.37
2018-11-07T20:08:52.438Z,1.30
2018-11-07T20:11:20.478Z,1.30
2018-11-07T20:13:48.526Z,1.10
2018-11-07T20:16:16.615Z,0.87
2018-11-07T20:18:44.614Z,1.30
2018-11-07T20:21:12.685Z,1.13
2018-11-07T20:23:40.747Z,1.03
2018-11-07T20:26:08.818Z,1.07
2018-11-07T20:28:36.899Z,1.20
2018-11-07T20:31:05.188Z,1.30
2018-11-07T20:33:33.254Z,1.27
2018-11-07T20:36:01.326Z,1.10
2018-11-07T20:38:29.331Z,1.20
2018-11-07T20:40:57.400Z,1.03
2018-11-07T20:43:25.680Z,1.50
2018-11-07T20:45:53.899Z,1.20
2018-11-07T20:48:21.946Z,1.37
2018-11-07T20:50:49.998Z,1.20
2018-11-07T20:53:18.030Z,1.03
2018-11-07T20:55:46.118Z,1.20
2018-11-07T20:58:14.174Z,1.13
2018-11-07T21:00:42.230Z,0.60
2018-11-07T21:03:10.314Z,0.97
2018-11-07T21:05:38.395Z,1.50
2018-11-07T21:08:06.442Z,1.10
2018-11-07T21:10:34.541Z,1.10
2018-11-07T21:13:02.590Z,1.03
2018-11-07T21:15:30.654Z,1.13
2018-11-07T21:17:58.715Z,0.90
2018-11-07T21:20:26.769Z,1.20
2018-11-07T21:22:54.841Z,0.90
2018-11-07T21:25:22.924Z,1.00
2018-11-07T21:27:50.970Z,0.97
2018-11-07T21:30:19.018Z,1.20
2018-11-07T21:32:47.322Z,1.10
2018-11-07T21:35:15.448Z,1.20
2018-11-07T21:37:43.444Z,1.17
2018-11-07T21:40:13.881Z,1.17
2018-11-07T21:42:42.061Z,1.07
2018-11-07T21:45:11.390Z,1.17
2018-11-07T21:47:40.042Z,1.50
2018-11-07T21:50:09.468Z,1.13
2018-11-07T21:52:37.678Z,1.00
2018-11-07T21:55:05.965Z,1.53
2018-11-07T21:57:34.126Z,1.30
2018-11-07T22:00:03.213Z,1.57
2018-11-07T22:02:31.502Z,1.17
2018-11-07T22:04:59.576Z,1.80
2018-11-07T22:07:27.734Z,1.47
2018-11-07T22:09:58.801Z,1.30
2018-11-07T22:12:26.859Z,1.27
2018-11-07T22:14:54.990Z,1.20
2018-11-07T22:17:23.029Z,1.20
2018-11-07T22:19:51.077Z,1.53
2018-11-07T22:22:19.134Z,1.53
2018-11-07T22:24:47.183Z,1.40
2018-11-07T22:27:15.235Z,1.00
2018-11-07T22:29:43.290Z,1.33
2018-11-07T22:32:11.346Z,1.43
2018-11-07T22:34:39.398Z,1.43
2018-11-07T22:37:07.445Z,1.30
2018-11-07T22:39:35.503Z,1.40
2018-11-07T22:42:03.550Z,1.23
2018-11-07T22:44:31.619Z,1.17
2018-11-07T22:46:59.662Z,1.30
2018-11-07T22:49:27.710Z,1.27
2018-11-07T22:51:55.766Z,1.23
2018-11-07T22:54:23.843Z,1.10
2018-11-07T22:56:51.907Z,1.47
2018-11-07T22:59:19.973Z,0.90
2018-11-07T23:01:48.262Z,0.97
2018-11-07T23:04:16.315Z,1.30
2018-11-07T23:06:44.376Z,1.10
2018-11-07T23:09:14.334Z,1.40
2018-11-07T23:11:43.430Z,1.23
2018-11-07T23:14:12.730Z,0.90
2018-11-07T23:16:41.458Z,1.17
2018-11-07T23:19:09.820Z,0.83
2018-11-07T23:21:38.024Z,1.20
2018-11-07T23:24:06.347Z,1.57
2018-11-07T23:26:34.468Z,1.17
2018-11-07T23:29:02.594Z,1.10
2018-11-07T23:31:30.814Z,1.30
2018-11-07T23:33:59.566Z,1.23
2018-11-07T23:36:27.630Z,0.97
2018-11-07T23:38:55.810Z,1.60
2018-11-07T23:41:24.158Z,1.00
2018-11-07T23:43:52.199Z,1.10
2018-11-07T23:46:20.254Z,1.10
2018-11-07T23:48:48.530Z,1.10
2018-11-07T23:51:16.645Z,1.00
2018-11-07T23:53:44.722Z,1.00
2018-11-07T23:56:12.991Z,0.97
2018-11-07T23:58:41.041Z,1.10
